sensor_id;sensor_type;location;lat;lon;timestamp;temperature;humidity
21662;DHT22;10992;48.170;8.596;2022-07-29T00:02:26;16.60;99.90
21662;DHT22;10992;48.170;8.596;2022-07-29T00:04:53;16.60;99.90
21662;DHT22;10992;48.170;8.596;2022-07-29T00:07:20;16.60;99.90
21662;DHT22;10992;48.170;8.596;2022-07-29T00:09:47;16.60;99.90
21662;DHT22;10992;48.170;8.596;2022-07-29T00:12:20;16.60;99.90
21662;DHT22;10992;48.170;8.596;2022-07-29T00:14:53;16.60;99.90
21662;DHT22;10992;48.170;8.596;2022-07-29T00:17:20;16.60;99.90
21662;DHT22;10992;48.170;8.596;2022-07-29T00:19:47;16.50;99.90
21662;DHT22;10992;48.170;8.596;2022-07-29T00:22:14;16.50;99.90
21662;DHT22;10992;48.170;8.596;2022-07-29T00:24:41;16.60;99.90
21662;DHT22;10992;48.170;8.596;2022-07-29T00:27:08;16.60;99.90
21662;DHT22;10992;48.170;8.596;2022-07-29T00:29:35;16.60;99.90
21662;DHT22;10992;48.170;8.596;2022-07-29T00:32:02;16.60;99.90
21662;DHT22;10992;48.170;8.596;2022-07-29T00:34:30;16.60;99.90
21662;DHT22;10992;48.170;8.596;2022-07-29T00:37:15;16.70;99.90
21662;DHT22;10992;48.170;8.596;2022-07-29T00:39:42;16.60;99.90
21662;DHT22;10992;48.170;8.596;2022-07-29T00:42:09;16.60;99.90
21662;DHT22;10992;48.170;8.596;2022-07-29T00:44:40;16.60;99.90
21662;DHT22;10992;48.170;8.596;2022-07-29T00:47:08;16.60;99.90
21662;DHT22;10992;48.170;8.596;2022-07-29T00:49:37;16.50;99.90
21662;DHT22;10992;48.170;8.596;2022-07-29T00:52:06;16.50;99.90
21662;DHT22;10992;48.170;8.596;2022-07-29T00:54:34;16.50;99.90
21662;DHT22;10992;48.170;8.596;2022-07-29T00:57:07;16.40;99.90
21662;DHT22;10992;48.170;8.596;2022-07-29T00:59:34;16.40;99.90
21662;DHT22;10992;48.170;8.596;2022-07-29T01:02:02;16.30;99.90
21662;DHT22;10992;48.170;8.596;2022-07-29T01:04:31;16.30;99.90
21662;DHT22;10992;48.170;8.596;2022-07-29T01:06:59;16.30;99.90
21662;DHT22;10992;48.170;8.596;2022-07-29T01:09:27;16.20;99.90
21662;DHT22;10992;48.170;8.596;2022-07-29T01:12:13;16.20;99.90
21662;DHT22;10992;48.170;8.596;2022-07-29T01:14:41;16.10;99.90
21662;DHT22;10992;48.170;8.596;2022-07-29T01:17:14;16.10;99.90
21662;DHT22;10992;48.170;8.596;2022-07-29T01:20:03;16.10;99.90
21662;DHT22;10992;48.170;8.596;2022-07-29T01:31:37;15.90;99.90
21662;DHT22;10992;48.170;8.596;2022-07-29T01:34:34;15.90;99.90
21662;DHT22;10992;48.170;8.596;2022-07-29T01:37:39;15.80;99.90
21662;DHT22;10992;48.170;8.596;2022-07-29T01:42:57;15.80;99.90
21662;DHT22;10992;48.170;8.596;2022-07-29T01:45:41;15.80;99.90
21662;DHT22;10992;48.170;8.596;2022-07-29T01:48:27;15.90;99.90
21662;DHT22;10992;48.170;8.596;2022-07-29T01:51:04;15.80;99.90
21662;DHT22;10992;48.170;8.596;2022-07-29T01:53:37;15.80;99.90
21662;DHT22;10992;48.170;8.596;2022-07-29T01:56:06;15.80;99.90
21662;DHT22;10992;48.170;8.596;2022-07-29T01:58:36;15.70;99.90
21662;DHT22;10992;48.170;8.596;2022-07-29T02:01:06;15.70;99.90
21662;DHT22;10992;48.170;8.596;2022-07-29T02:03:36;15.70;99.90
21662;DHT22;10992;48.170;8.596;2022-07-29T02:06:05;15.60;99.90
21662;DHT22;10992;48.170;8.596;2022-07-29T02:08:34;15.70;99.90
21662;DHT22;10992;48.170;8.596;2022-07-29T02:11:03;15.70;99.90
21662;DHT22;10992;48.170;8.596;2022-07-29T02:13:32;15.70;99.90
21662;DHT22;10992;48.170;8.596;2022-07-29T02:16:00;15.60;99.90
21662;DHT22;10992;48.170;8.596;2022-07-29T02:18:30;15.70;99.90
21662;DHT22;10992;48.170;8.596;2022-07-29T02:20:59;15.60;99.90
21662;DHT22;10992;48.170;8.596;2022-07-29T02:23:27;15.60;99.90
21662;DHT22;10992;48.170;8.596;2022-07-29T02:25:57;15.70;99.90
21662;DHT22;10992;48.170;8.596;2022-07-29T02:28:27;15.60;99.90
21662;DHT22;10992;48.170;8.596;2022-07-29T02:30:58;15.60;99.90
21662;DHT22;10992;48.170;8.596;2022-07-29T02:33:26;15.60;99.90
21662;DHT22;10992;48.170;8.596;2022-07-29T02:35:55;15.60;99.90
21662;DHT22;10992;48.170;8.596;2022-07-29T02:38:23;15.60;99.90
21662;DHT22;10992;48.170;8.596;2022-07-29T02:41:38;15.50;99.90
21662;DHT22;10992;48.170;8.596;2022-07-29T02:44:12;15.50;99.90
21662;DHT22;10992;48.170;8.596;2022-07-29T02:49:38;15.50;99.90
21662;DHT22;10992;48.170;8.596;2022-07-29T02:52:17;15.40;99.90
21662;DHT22;10992;48.170;8.596;2022-07-29T02:54:51;15.40;99.90
21662;DHT22;10992;48.170;8.596;2022-07-29T03:00:23;15.30;99.90
21662;DHT22;10992;48.170;8.596;2022-07-29T03:02:56;15.20;99.90
21662;DHT22;10992;48.170;8.596;2022-07-29T03:05:23;15.20;99.90
21662;DHT22;10992;48.170;8.596;2022-07-29T03:08:02;15.20;99.90
21662;DHT22;10992;48.170;8.596;2022-07-29T03:10:30;15.10;99.90
21662;DHT22;10992;48.170;8.596;2022-07-29T03:12:58;15.10;99.90
21662;DHT22;10992;48.170;8.596;2022-07-29T03:15:27;15.10;99.90
21662;DHT22;10992;48.170;8.596;2022-07-29T03:17:54;15.00;99.90
21662;DHT22;10992;48.170;8.596;2022-07-29T03:20:23;14.90;99.90
21662;DHT22;10992;48.170;8.596;2022-07-29T03:22:51;14.80;99.90
21662;DHT22;10992;48.170;8.596;2022-07-29T03:25:20;14.80;99.90
21662;DHT22;10992;48.170;8.596;2022-07-29T03:27:47;14.80;99.90
21662;DHT22;10992;48.170;8.596;2022-07-29T03:30:15;14.70;99.90
21662;DHT22;10992;48.170;8.596;2022-07-29T03:32:48;14.60;99.90
21662;DHT22;10992;48.170;8.596;2022-07-29T03:35:17;14.60;99.90
21662;DHT22;10992;48.170;8.596;2022-07-29T03:37:45;14.40;99.90
21662;DHT22;10992;48.170;8.596;2022-07-29T03:40:17;14.40;99.90
21662;DHT22;10992;48.170;8.596;2022-07-29T03:42:45;14.40;99.90
21662;DHT22;10992;48.170;8.596;2022-07-29T03:45:17;14.40;99.90
21662;DHT22;10992;48.170;8.596;2022-07-29T03:47:50;14.30;99.90
21662;DHT22;10992;48.170;8.596;2022-07-29T03:50:22;14.30;99.90
21662;DHT22;10992;48.170;8.596;2022-07-29T03:52:49;14.40;99.90
21662;DHT22;10992;48.170;8.596;2022-07-29T03:55:17;14.40;99.90
21662;DHT22;10992;48.170;8.596;2022-07-29T03:57:45;14.40;99.90
21662;DHT22;10992;48.170;8.596;2022-07-29T04:00:14;14.40;99.90
21662;DHT22;10992;48.170;8.596;2022-07-29T04:02:43;14.40;99.90
21662;DHT22;10992;48.170;8.596;2022-07-29T04:05:16;14.40;99.90
21662;DHT22;10992;48.170;8.596;2022-07-29T04:07:47;14.50;99.90
21662;DHT22;10992;48.170;8.596;2022-07-29T04:10:15;14.60;99.90
21662;DHT22;10992;48.170;8.596;2022-07-29T04:12:42;14.60;99.90
21662;DHT22;10992;48.170;8.596;2022-07-29T04:15:10;14.60;99.90
21662;DHT22;10992;48.170;8.596;2022-07-29T04:17:37;14.60;99.90
21662;DHT22;10992;48.170;8.596;2022-07-29T04:20:05;14.70;99.90
21662;DHT22;10992;48.170;8.596;2022-07-29T04:22:32;14.70;99.90
21662;DHT22;10992;48.170;8.596;2022-07-29T04:24:59;14.80;99.90
21662;DHT22;10992;48.170;8.596;2022-07-29T04:27:29;14.90;99.90
21662;DHT22;10992;48.170;8.596;2022-07-29T04:29:56;15.00;99.90
21662;DHT22;10992;48.170;8.596;2022-07-29T04:32:24;15.00;99.90
21662;DHT22;10992;48.170;8.596;2022-07-29T04:34:51;15.10;99.90
21662;DHT22;10992;48.170;8.596;2022-07-29T04:37:19;15.10;99.90
21662;DHT22;10992;48.170;8.596;2022-07-29T04:39:46;15.20;99.90
21662;DHT22;10992;48.170;8.596;2022-07-29T04:42:12;15.20;99.90
21662;DHT22;10992;48.170;8.596;2022-07-29T04:44:39;15.20;99.90
21662;DHT22;10992;48.170;8.596;2022-07-29T04:47:09;15.30;99.90
21662;DHT22;10992;48.170;8.596;2022-07-29T04:49:39;15.40;99.90
21662;DHT22;10992;48.170;8.596;2022-07-29T04:52:09;15.50;99.90
21662;DHT22;10992;48.170;8.596;2022-07-29T04:54:36;15.60;99.90
21662;DHT22;10992;48.170;8.596;2022-07-29T04:57:03;15.70;99.90
21662;DHT22;10992;48.170;8.596;2022-07-29T04:59:30;15.90;99.90
21662;DHT22;10992;48.170;8.596;2022-07-29T05:01:56;16.10;99.90
21662;DHT22;10992;48.170;8.596;2022-07-29T05:04:23;16.30;99.90
21662;DHT22;10992;48.170;8.596;2022-07-29T05:06:50;16.60;99.90
21662;DHT22;10992;48.170;8.596;2022-07-29T05:09:17;16.90;99.90
21662;DHT22;10992;48.170;8.596;2022-07-29T05:11:44;17.20;99.90
21662;DHT22;10992;48.170;8.596;2022-07-29T05:14:11;17.40;99.90
21662;DHT22;10992;48.170;8.596;2022-07-29T05:16:38;17.60;99.90
21662;DHT22;10992;48.170;8.596;2022-07-29T05:19:09;17.90;99.90
21662;DHT22;10992;48.170;8.596;2022-07-29T05:21:40;17.90;99.90
21662;DHT22;10992;48.170;8.596;2022-07-29T05:24:07;17.90;99.90
21662;DHT22;10992;48.170;8.596;2022-07-29T05:26:34;17.70;99.90
21662;DHT22;10992;48.170;8.596;2022-07-29T05:29:01;17.70;99.90
21662;DHT22;10992;48.170;8.596;2022-07-29T05:31:28;17.80;99.90
21662;DHT22;10992;48.170;8.596;2022-07-29T05:33:55;17.90;99.90
21662;DHT22;10992;48.170;8.596;2022-07-29T05:36:22;18.00;99.90
21662;DHT22;10992;48.170;8.596;2022-07-29T05:38:49;18.30;99.90
21662;DHT22;10992;48.170;8.596;2022-07-29T05:41:17;19.10;99.90
21662;DHT22;10992;48.170;8.596;2022-07-29T05:43:44;20.10;99.90
21662;DHT22;10992;48.170;8.596;2022-07-29T05:46:11;21.20;99.90
21662;DHT22;10992;48.170;8.596;2022-07-29T05:48:38;21.20;99.90
21662;DHT22;10992;48.170;8.596;2022-07-29T05:51:05;21.00;99.90
21662;DHT22;10992;48.170;8.596;2022-07-29T05:53:32;20.70;99.90
21662;DHT22;10992;48.170;8.596;2022-07-29T05:56:03;20.50;99.90
21662;DHT22;10992;48.170;8.596;2022-07-29T05:58:31;20.40;99.90
21662;DHT22;10992;48.170;8.596;2022-07-29T06:00:58;20.00;99.90
21662;DHT22;10992;48.170;8.596;2022-07-29T06:03:28;19.70;99.90
21662;DHT22;10992;48.170;8.596;2022-07-29T06:05:55;19.60;99.90
21662;DHT22;10992;48.170;8.596;2022-07-29T06:08:22;19.60;99.90
21662;DHT22;10992;48.170;8.596;2022-07-29T06:10:49;19.60;99.90
21662;DHT22;10992;48.170;8.596;2022-07-29T06:13:15;19.60;99.90
21662;DHT22;10992;48.170;8.596;2022-07-29T06:15:43;19.80;99.90
21662;DHT22;10992;48.170;8.596;2022-07-29T06:18:12;20.00;99.90
21662;DHT22;10992;48.170;8.596;2022-07-29T06:20:39;20.10;99.90
21662;DHT22;10992;48.170;8.596;2022-07-29T06:23:06;20.30;99.90
21662;DHT22;10992;48.170;8.596;2022-07-29T06:25:33;20.10;99.90
21662;DHT22;10992;48.170;8.596;2022-07-29T06:28:02;20.90;99.90
21662;DHT22;10992;48.170;8.596;2022-07-29T06:30:29;21.70;99.90
21662;DHT22;10992;48.170;8.596;2022-07-29T06:32:56;21.60;99.90
21662;DHT22;10992;48.170;8.596;2022-07-29T06:35:23;21.40;99.90
21662;DHT22;10992;48.170;8.596;2022-07-29T06:38:08;21.40;99.90
21662;DHT22;10992;48.170;8.596;2022-07-29T06:40:55;22.40;99.90
21662;DHT22;10992;48.170;8.596;2022-07-29T06:43:41;23.20;99.90
21662;DHT22;10992;48.170;8.596;2022-07-29T06:46:19;22.80;99.90
21662;DHT22;10992;48.170;8.596;2022-07-29T06:48:47;22.50;99.90
21662;DHT22;10992;48.170;8.596;2022-07-29T06:51:14;21.90;99.90
21662;DHT22;10992;48.170;8.596;2022-07-29T06:53:44;21.40;99.90
21662;DHT22;10992;48.170;8.596;2022-07-29T06:56:33;21.40;99.90
21662;DHT22;10992;48.170;8.596;2022-07-29T06:59:06;21.30;99.90
21662;DHT22;10992;48.170;8.596;2022-07-29T07:01:33;21.80;99.90
21662;DHT22;10992;48.170;8.596;2022-07-29T07:04:00;23.00;99.90
21662;DHT22;10992;48.170;8.596;2022-07-29T07:06:27;25.30;99.90
21662;DHT22;10992;48.170;8.596;2022-07-29T07:08:55;26.50;99.90
21662;DHT22;10992;48.170;8.596;2022-07-29T07:11:22;26.70;99.90
21662;DHT22;10992;48.170;8.596;2022-07-29T07:13:49;26.30;99.90
21662;DHT22;10992;48.170;8.596;2022-07-29T07:16:16;26.70;99.90
21662;DHT22;10992;48.170;8.596;2022-07-29T07:18:43;26.80;99.90
21662;DHT22;10992;48.170;8.596;2022-07-29T07:21:12;26.60;99.90
21662;DHT22;10992;48.170;8.596;2022-07-29T07:23:45;26.70;99.90
21662;DHT22;10992;48.170;8.596;2022-07-29T07:26:12;26.30;99.90
21662;DHT22;10992;48.170;8.596;2022-07-29T07:28:39;26.50;99.90
21662;DHT22;10992;48.170;8.596;2022-07-29T07:31:06;25.80;99.90
21662;DHT22;10992;48.170;8.596;2022-07-29T07:33:33;25.70;99.90
21662;DHT22;10992;48.170;8.596;2022-07-29T07:36:00;24.80;99.90
21662;DHT22;10992;48.170;8.596;2022-07-29T07:38:27;25.10;99.90
21662;DHT22;10992;48.170;8.596;2022-07-29T07:40:54;26.60;99.90
21662;DHT22;10992;48.170;8.596;2022-07-29T07:43:21;27.60;99.90
21662;DHT22;10992;48.170;8.596;2022-07-29T07:45:49;27.90;99.90
21662;DHT22;10992;48.170;8.596;2022-07-29T07:48:16;27.80;99.90
21662;DHT22;10992;48.170;8.596;2022-07-29T07:50:43;27.70;99.90
21662;DHT22;10992;48.170;8.596;2022-07-29T07:53:10;28.90;99.90
21662;DHT22;10992;48.170;8.596;2022-07-29T07:55:42;29.50;99.90
21662;DHT22;10992;48.170;8.596;2022-07-29T07:58:29;28.40;99.90
21662;DHT22;10992;48.170;8.596;2022-07-29T08:00:55;30.40;99.90
21662;DHT22;10992;48.170;8.596;2022-07-29T08:03:22;31.40;99.90
21662;DHT22;10992;48.170;8.596;2022-07-29T08:05:49;30.60;99.90
21662;DHT22;10992;48.170;8.596;2022-07-29T08:08:18;29.40;99.90
21662;DHT22;10992;48.170;8.596;2022-07-29T08:10:45;28.00;99.90
21662;DHT22;10992;48.170;8.596;2022-07-29T08:13:31;26.00;99.90
21662;DHT22;10992;48.170;8.596;2022-07-29T08:15:59;25.10;99.90
21662;DHT22;10992;48.170;8.596;2022-07-29T08:18:39;24.90;99.90
21662;DHT22;10992;48.170;8.596;2022-07-29T08:21:06;24.40;99.90
21662;DHT22;10992;48.170;8.596;2022-07-29T08:23:33;24.20;99.90
21662;DHT22;10992;48.170;8.596;2022-07-29T08:26:15;24.60;99.90
21662;DHT22;10992;48.170;8.596;2022-07-29T08:28:43;24.80;99.90
21662;DHT22;10992;48.170;8.596;2022-07-29T08:31:16;25.10;99.90
21662;DHT22;10992;48.170;8.596;2022-07-29T08:33:44;24.90;99.90
21662;DHT22;10992;48.170;8.596;2022-07-29T08:36:11;24.80;99.90
21662;DHT22;10992;48.170;8.596;2022-07-29T08:38:39;24.60;99.90
21662;DHT22;10992;48.170;8.596;2022-07-29T08:41:06;24.60;99.90
21662;DHT22;10992;48.170;8.596;2022-07-29T08:43:33;24.80;99.90
21662;DHT22;10992;48.170;8.596;2022-07-29T08:46:03;24.70;99.90
21662;DHT22;10992;48.170;8.596;2022-07-29T08:48:31;24.30;99.90
21662;DHT22;10992;48.170;8.596;2022-07-29T08:50:58;24.00;99.90
21662;DHT22;10992;48.170;8.596;2022-07-29T08:53:28;23.90;99.90
21662;DHT22;10992;48.170;8.596;2022-07-29T08:55:58;23.80;99.90
21662;DHT22;10992;48.170;8.596;2022-07-29T08:58:27;23.70;99.90
21662;DHT22;10992;48.170;8.596;2022-07-29T09:01:03;24.20;99.90
21662;DHT22;10992;48.170;8.596;2022-07-29T09:03:35;24.40;99.90
21662;DHT22;10992;48.170;8.596;2022-07-29T09:06:04;24.80;99.90
21662;DHT22;10992;48.170;8.596;2022-07-29T09:08:32;24.30;99.90
21662;DHT22;10992;48.170;8.596;2022-07-29T09:11:02;24.10;99.90
21662;DHT22;10992;48.170;8.596;2022-07-29T09:13:31;23.80;99.90
21662;DHT22;10992;48.170;8.596;2022-07-29T09:15:58;23.70;99.90
21662;DHT22;10992;48.170;8.596;2022-07-29T09:18:44;23.30;99.90
21662;DHT22;10992;48.170;8.596;2022-07-29T09:21:15;23.40;99.90
21662;DHT22;10992;48.170;8.596;2022-07-29T09:24:06;23.50;99.90
21662;DHT22;10992;48.170;8.596;2022-07-29T09:26:36;23.50;99.90
21662;DHT22;10992;48.170;8.596;2022-07-29T09:29:11;23.70;99.90
21662;DHT22;10992;48.170;8.596;2022-07-29T09:31:46;23.90;99.90
21662;DHT22;10992;48.170;8.596;2022-07-29T09:34:15;24.10;99.90
21662;DHT22;10992;48.170;8.596;2022-07-29T09:36:46;23.90;99.90
21662;DHT22;10992;48.170;8.596;2022-07-29T09:39:15;23.70;99.90
21662;DHT22;10992;48.170;8.596;2022-07-29T09:41:51;23.70;99.90
21662;DHT22;10992;48.170;8.596;2022-07-29T09:44:22;23.70;99.90
21662;DHT22;10992;48.170;8.596;2022-07-29T09:47:00;23.40;99.90
21662;DHT22;10992;48.170;8.596;2022-07-29T09:52:20;23.20;99.90
21662;DHT22;10992;48.170;8.596;2022-07-29T09:54:48;23.10;99.90
21662;DHT22;10992;48.170;8.596;2022-07-29T09:57:28;23.30;99.90
21662;DHT22;10992;48.170;8.596;2022-07-29T09:59:57;23.20;99.90
21662;DHT22;10992;48.170;8.596;2022-07-29T10:02:29;23.40;99.90
21662;DHT22;10992;48.170;8.596;2022-07-29T10:04:59;23.50;99.90
21662;DHT22;10992;48.170;8.596;2022-07-29T10:07:26;23.40;99.90
21662;DHT22;10992;48.170;8.596;2022-07-29T10:10:09;23.40;99.90
21662;DHT22;10992;48.170;8.596;2022-07-29T10:12:49;23.20;99.90
21662;DHT22;10992;48.170;8.596;2022-07-29T10:15:16;23.10;99.90
21662;DHT22;10992;48.170;8.596;2022-07-29T10:17:44;23.10;99.90
21662;DHT22;10992;48.170;8.596;2022-07-29T10:20:10;22.70;99.90
21662;DHT22;10992;48.170;8.596;2022-07-29T10:22:42;22.70;99.90
21662;DHT22;10992;48.170;8.596;2022-07-29T10:25:19;22.40;99.90
21662;DHT22;10992;48.170;8.596;2022-07-29T10:27:48;22.20;99.90
21662;DHT22;10992;48.170;8.596;2022-07-29T10:30:18;22.30;99.90
21662;DHT22;10992;48.170;8.596;2022-07-29T10:33:13;22.50;99.90
21662;DHT22;10992;48.170;8.596;2022-07-29T10:38:41;23.20;99.90
21662;DHT22;10992;48.170;8.596;2022-07-29T10:44:21;23.60;99.90
21662;DHT22;10992;48.170;8.596;2022-07-29T10:46:50;24.10;99.90
21662;DHT22;10992;48.170;8.596;2022-07-29T10:49:25;25.00;99.90
21662;DHT22;10992;48.170;8.596;2022-07-29T10:52:08;26.00;99.90
21662;DHT22;10992;48.170;8.596;2022-07-29T10:54:40;26.00;99.90
21662;DHT22;10992;48.170;8.596;2022-07-29T10:57:27;26.40;99.90
21662;DHT22;10992;48.170;8.596;2022-07-29T11:02:44;26.80;99.90
21662;DHT22;10992;48.170;8.596;2022-07-29T11:05:17;26.30;99.90
21662;DHT22;10992;48.170;8.596;2022-07-29T11:10:47;27.10;99.90
21662;DHT22;10992;48.170;8.596;2022-07-29T11:16:12;28.50;99.90
21662;DHT22;10992;48.170;8.596;2022-07-29T11:21:38;29.70;99.90
21662;DHT22;10992;48.170;8.596;2022-07-29T11:24:26;30.10;99.90
21662;DHT22;10992;48.170;8.596;2022-07-29T11:27:15;30.00;99.90
21662;DHT22;10992;48.170;8.596;2022-07-29T11:29:51;29.10;99.90
21662;DHT22;10992;48.170;8.596;2022-07-29T11:32:20;29.10;99.90
21662;DHT22;10992;48.170;8.596;2022-07-29T11:35:14;28.70;99.90
21662;DHT22;10992;48.170;8.596;2022-07-29T11:37:44;29.20;99.90
21662;DHT22;10992;48.170;8.596;2022-07-29T11:40:21;29.50;99.90
21662;DHT22;10992;48.170;8.596;2022-07-29T11:42:49;29.60;99.90
21662;DHT22;10992;48.170;8.596;2022-07-29T11:45:19;29.40;99.90
21662;DHT22;10992;48.170;8.596;2022-07-29T11:48:07;29.90;99.90
21662;DHT22;10992;48.170;8.596;2022-07-29T11:50:57;30.20;99.90
21662;DHT22;10992;48.170;8.596;2022-07-29T11:53:24;29.90;99.90
21662;DHT22;10992;48.170;8.596;2022-07-29T11:55:55;29.60;99.90
21662;DHT22;10992;48.170;8.596;2022-07-29T11:58:27;29.40;99.90
21662;DHT22;10992;48.170;8.596;2022-07-29T12:00:57;28.80;99.90
21662;DHT22;10992;48.170;8.596;2022-07-29T12:03:44;28.20;99.90
21662;DHT22;10992;48.170;8.596;2022-07-29T12:06:14;28.00;99.90
21662;DHT22;10992;48.170;8.596;2022-07-29T12:09:07;27.70;99.90
21662;DHT22;10992;48.170;8.596;2022-07-29T12:11:40;27.10;99.90
21662;DHT22;10992;48.170;8.596;2022-07-29T12:14:25;26.90;99.90
21662;DHT22;10992;48.170;8.596;2022-07-29T12:16:53;26.90;99.90
21662;DHT22;10992;48.170;8.596;2022-07-29T12:19:20;26.60;99.90
21662;DHT22;10992;48.170;8.596;2022-07-29T12:21:50;26.90;99.90
21662;DHT22;10992;48.170;8.596;2022-07-29T12:24:23;27.10;99.90
21662;DHT22;10992;48.170;8.596;2022-07-29T12:26:58;27.20;99.90
21662;DHT22;10992;48.170;8.596;2022-07-29T12:29:26;27.40;99.90
21662;DHT22;10992;48.170;8.596;2022-07-29T12:32:02;27.60;99.90
21662;DHT22;10992;48.170;8.596;2022-07-29T12:34:30;27.20;99.90
21662;DHT22;10992;48.170;8.596;2022-07-29T12:36:57;26.80;99.90
21662;DHT22;10992;48.170;8.596;2022-07-29T12:39:24;27.10;99.90
21662;DHT22;10992;48.170;8.596;2022-07-29T12:41:54;27.10;99.90
21662;DHT22;10992;48.170;8.596;2022-07-29T12:44:50;27.10;99.90
21662;DHT22;10992;48.170;8.596;2022-07-29T12:47:18;26.60;99.90
21662;DHT22;10992;48.170;8.596;2022-07-29T12:49:46;26.40;99.90
21662;DHT22;10992;48.170;8.596;2022-07-29T12:52:34;26.80;99.90
21662;DHT22;10992;48.170;8.596;2022-07-29T12:55:01;26.70;99.90
21662;DHT22;10992;48.170;8.596;2022-07-29T12:57:28;26.80;99.90
21662;DHT22;10992;48.170;8.596;2022-07-29T13:00:10;26.20;99.90
21662;DHT22;10992;48.170;8.596;2022-07-29T13:02:39;26.10;99.90
21662;DHT22;10992;48.170;8.596;2022-07-29T13:05:08;25.60;99.90
21662;DHT22;10992;48.170;8.596;2022-07-29T13:07:36;26.40;99.90
21662;DHT22;10992;48.170;8.596;2022-07-29T13:10:23;26.30;99.90
21662;DHT22;10992;48.170;8.596;2022-07-29T13:13:10;26.80;99.90
21662;DHT22;10992;48.170;8.596;2022-07-29T13:15:44;26.40;99.90
21662;DHT22;10992;48.170;8.596;2022-07-29T13:18:30;26.50;99.90
21662;DHT22;10992;48.170;8.596;2022-07-29T13:21:10;26.40;99.90
21662;DHT22;10992;48.170;8.596;2022-07-29T13:23:38;26.40;99.90
21662;DHT22;10992;48.170;8.596;2022-07-29T13:26:09;26.10;99.90
21662;DHT22;10992;48.170;8.596;2022-07-29T13:28:35;26.00;99.90
21662;DHT22;10992;48.170;8.596;2022-07-29T13:31:02;25.80;99.90
21662;DHT22;10992;48.170;8.596;2022-07-29T13:33:30;25.40;99.90
21662;DHT22;10992;48.170;8.596;2022-07-29T13:35:57;25.60;99.90
21662;DHT22;10992;48.170;8.596;2022-07-29T13:38:24;25.20;99.90
21662;DHT22;10992;48.170;8.596;2022-07-29T13:40:57;25.30;99.90
21662;DHT22;10992;48.170;8.596;2022-07-29T13:43:24;25.20;99.90
21662;DHT22;10992;48.170;8.596;2022-07-29T13:45:51;25.20;99.90
21662;DHT22;10992;48.170;8.596;2022-07-29T13:48:18;25.00;99.90
21662;DHT22;10992;48.170;8.596;2022-07-29T13:50:45;24.80;99.90
21662;DHT22;10992;48.170;8.596;2022-07-29T13:53:13;24.80;99.90
21662;DHT22;10992;48.170;8.596;2022-07-29T13:55:44;24.80;99.90
21662;DHT22;10992;48.170;8.596;2022-07-29T13:58:11;24.60;99.90
21662;DHT22;10992;48.170;8.596;2022-07-29T14:00:38;24.60;99.90
21662;DHT22;10992;48.170;8.596;2022-07-29T14:03:05;24.70;99.90
21662;DHT22;10992;48.170;8.596;2022-07-29T14:05:33;24.50;99.90
21662;DHT22;10992;48.170;8.596;2022-07-29T14:07:59;24.20;99.90
21662;DHT22;10992;48.170;8.596;2022-07-29T14:10:26;24.40;99.90
21662;DHT22;10992;48.170;8.596;2022-07-29T14:12:53;24.30;99.90
21662;DHT22;10992;48.170;8.596;2022-07-29T14:15:20;24.40;99.90
21662;DHT22;10992;48.170;8.596;2022-07-29T14:17:47;24.50;99.90
21662;DHT22;10992;48.170;8.596;2022-07-29T14:20:14;24.40;99.90
21662;DHT22;10992;48.170;8.596;2022-07-29T14:22:42;24.40;99.90
21662;DHT22;10992;48.170;8.596;2022-07-29T14:25:10;24.30;99.90
21662;DHT22;10992;48.170;8.596;2022-07-29T14:27:42;24.30;99.90
21662;DHT22;10992;48.170;8.596;2022-07-29T14:30:09;24.40;99.90
21662;DHT22;10992;48.170;8.596;2022-07-29T14:32:36;24.50;99.90
21662;DHT22;10992;48.170;8.596;2022-07-29T14:35:04;24.40;99.90
21662;DHT22;10992;48.170;8.596;2022-07-29T14:37:31;24.30;99.90
21662;DHT22;10992;48.170;8.596;2022-07-29T14:40:07;24.30;99.90
21662;DHT22;10992;48.170;8.596;2022-07-29T14:42:34;24.20;99.90
21662;DHT22;10992;48.170;8.596;2022-07-29T14:45:03;24.20;99.90
21662;DHT22;10992;48.170;8.596;2022-07-29T14:47:31;24.40;99.90
21662;DHT22;10992;48.170;8.596;2022-07-29T14:49:58;24.40;99.90
21662;DHT22;10992;48.170;8.596;2022-07-29T14:52:24;24.50;99.90
21662;DHT22;10992;48.170;8.596;2022-07-29T14:54:51;24.20;99.90
21662;DHT22;10992;48.170;8.596;2022-07-29T14:57:18;24.00;99.90
21662;DHT22;10992;48.170;8.596;2022-07-29T14:59:46;24.00;99.90
21662;DHT22;10992;48.170;8.596;2022-07-29T15:02:13;24.20;99.90
21662;DHT22;10992;48.170;8.596;2022-07-29T15:04:40;24.40;99.90
21662;DHT22;10992;48.170;8.596;2022-07-29T15:07:07;24.20;99.90
21662;DHT22;10992;48.170;8.596;2022-07-29T15:09:34;24.50;99.90
21662;DHT22;10992;48.170;8.596;2022-07-29T15:12:13;24.50;99.90
21662;DHT22;10992;48.170;8.596;2022-07-29T15:14:40;24.50;99.90
21662;DHT22;10992;48.170;8.596;2022-07-29T15:17:06;24.40;99.90
21662;DHT22;10992;48.170;8.596;2022-07-29T15:19:35;24.20;99.90
21662;DHT22;10992;48.170;8.596;2022-07-29T15:22:03;24.40;99.90
21662;DHT22;10992;48.170;8.596;2022-07-29T15:24:34;24.40;99.90
21662;DHT22;10992;48.170;8.596;2022-07-29T15:27:01;24.80;99.90
21662;DHT22;10992;48.170;8.596;2022-07-29T15:29:28;25.00;99.90
21662;DHT22;10992;48.170;8.596;2022-07-29T15:31:56;25.10;99.90
21662;DHT22;10992;48.170;8.596;2022-07-29T15:34:24;25.00;99.90
21662;DHT22;10992;48.170;8.596;2022-07-29T15:36:51;24.90;99.90
21662;DHT22;10992;48.170;8.596;2022-07-29T15:39:20;24.70;99.90
21662;DHT22;10992;48.170;8.596;2022-07-29T15:41:48;24.70;99.90
21662;DHT22;10992;48.170;8.596;2022-07-29T15:44:15;24.50;99.90
21662;DHT22;10992;48.170;8.596;2022-07-29T15:46:42;24.50;99.90
21662;DHT22;10992;48.170;8.596;2022-07-29T15:49:38;24.40;99.90
21662;DHT22;10992;48.170;8.596;2022-07-29T15:52:18;24.60;99.90
21662;DHT22;10992;48.170;8.596;2022-07-29T15:54:53;24.70;99.90
21662;DHT22;10992;48.170;8.596;2022-07-29T15:57:21;24.80;99.90
21662;DHT22;10992;48.170;8.596;2022-07-29T15:59:48;24.90;99.90
21662;DHT22;10992;48.170;8.596;2022-07-29T16:02:15;24.80;99.90
21662;DHT22;10992;48.170;8.596;2022-07-29T16:04:43;24.70;99.90
21662;DHT22;10992;48.170;8.596;2022-07-29T16:07:10;24.70;99.90
21662;DHT22;10992;48.170;8.596;2022-07-29T16:09:37;24.60;99.90
21662;DHT22;10992;48.170;8.596;2022-07-29T16:12:04;24.40;99.90
21662;DHT22;10992;48.170;8.596;2022-07-29T16:14:41;24.50;99.90
21662;DHT22;10992;48.170;8.596;2022-07-29T16:17:08;24.60;99.90
21662;DHT22;10992;48.170;8.596;2022-07-29T16:19:43;24.70;99.90
21662;DHT22;10992;48.170;8.596;2022-07-29T16:22:11;24.60;99.90
21662;DHT22;10992;48.170;8.596;2022-07-29T16:24:38;24.70;99.90
21662;DHT22;10992;48.170;8.596;2022-07-29T16:27:05;24.50;99.90
21662;DHT22;10992;48.170;8.596;2022-07-29T16:29:32;24.50;99.90
21662;DHT22;10992;48.170;8.596;2022-07-29T16:31:59;24.20;99.90